Share

Imperatriz, Brazil

Imperatriz (SBIZ) Elev 404 ft | 5.53 °S, 47.50 °W | Change Station

Current weather conditions updated 2 hours ago

Scattered Clouds
Scattered Clouds
79 °F
Feels Like 79 °F
N
1
Wind Variable Wind from NNE
Sunrise 6:10 AM
Sunset 6:08 PM
Moon Waning Gibbous

Today is forecast to be Cooler than yesterday. Thunderstorms.

Pressure 29.89 in
Visibility 6.2 miles
Clouds Scattered Clouds 1500 ft
Dew Point 75 °F
Humidity 89%
Rainfall 0.00 in
Snow Depth Not available.
UV 0 out of 16
Pollen Not available.
Air Quality Not available.
Flu Activity Not available.
SPECI SBIZ 180320Z 03001KT 9999 SCT015 26/24 Q1012

More Conditions Fewer Conditions

Pressure 29.89 in
Visibility 6.2 miles
Clouds Scattered Clouds 1500 ft
Dew Point 75 °F
Humidity 89%
Rainfall 0.00 in
Snow Depth Not available.
UV 0 out of 16
Pollen Not available.
Air Quality Not available.
Flu Activity Not available.
SPECI SBIZ 180320Z 03001KT 9999 SCT015 26/24 Q1012

More Conditions Fewer Conditions

10-Day Forecast

Almanac

Astronomy

Apr. 18, 2014 Rise Set
Actual Time 6:10 AM BRT 6:08 PM BRT
Civil Twilight 5:48 AM BRT 6:29 PM BRT
Nautical Twilight 5:24 AM BRT 6:53 PM BRT
Astronomical Twilight 4:59 AM BRT 7:18 PM BRT
Moon 9:12 PM BRT 8:58 AM BRT
Length of Visible Light 12h 40m
Length of Day
11h 58m
Tomorrow will be 0m 16s shorter.
Waning Gibbous, 90% of the Moon is Illuminated
Today
Waning Gibbous
Apr 22
Last Quarter
Apr 29
New
May 6
First Quarter
May 14
Full

Yesterday's Extremes

Country Highs Country Lows

Community

  • SUNRISE THROUGH THE TREES.
    SUNRISE THROUGH THE TREES.
  • Dog Wood Blossoms
    Dog Wood Blossoms
  • Morning Light
    Morning Light
  • New Day
    New Day
  • Lake Michigan Sunrise
    Lake Michigan Sunrise

WunderPhotos

Upload Photos

1,702,276 photos uploaded!

WunderBlogs® & News

Nearby

Snow Depth

Not available.

Coastal Water Temperatures

Place Temperature
No Stations Reporting

Earthquake Activity

City Distance Mag. Time & Date
No recent earthquake activity has been reported nearby.
Minimum magnitude displayed is 2.5.

Nearby Weather Stations

There are no personal weather stations in this area.

What do you think?

We're not finished. Please let us know what you like, what you don't like, and what you are still missing.